createdAt,value
2023-02-11T00:04:09.922Z,103249.34
2023-02-11T00:09:12.449Z,103256.38
2023-02-11T00:14:15.157Z,103242.84
2023-02-11T00:19:17.669Z,103234.19
2023-02-11T00:24:20.198Z,103247.41
2023-02-11T00:29:22.797Z,103240.63
2023-02-11T00:34:25.630Z,103225.66
2023-02-11T00:39:31.274Z,103232.53
2023-02-11T00:44:33.814Z,103223.78
2023-02-11T00:49:37.201Z,103217.44
2023-02-11T00:54:39.646Z,103210.09
2023-02-11T00:59:42.656Z,103218.09
2023-02-11T01:04:45.228Z,103218.47
2023-02-11T01:09:47.828Z,103216.69
2023-02-11T01:14:54.309Z,103217.75
2023-02-11T01:19:56.865Z,103228.63
2023-02-11T01:24:59.766Z,103232.69
2023-02-11T01:30:02.889Z,103221.66
2023-02-11T01:35:06.872Z,103237.34
2023-02-11T01:40:17.185Z,103224.47
2023-02-11T01:45:44.954Z,103222.06
2023-02-11T01:50:51.128Z,103223.91
2023-02-11T01:56:13.574Z,103201.72
2023-02-11T02:01:21.761Z,103208.81
2023-02-11T02:06:34.820Z,103220.78
2023-02-11T02:11:39.373Z,103210.31
2023-02-11T02:16:42.069Z,103219.47
2023-02-11T02:22:06.162Z,103219.97
2023-02-11T02:27:20.556Z,103226.13
2023-02-11T02:32:51.079Z,103232.38
2023-02-11T02:38:14.913Z,103214.16
2023-02-11T02:43:18.887Z,103211.69
2023-02-11T02:48:32.529Z,103204.47
2023-02-11T02:53:44.159Z,103200.03
2023-02-11T02:59:05.795Z,103190.69
2023-02-11T03:04:23.345Z,103202.16
2023-02-11T03:09:39.574Z,103202.03
2023-02-11T03:14:42.547Z,103187.06
2023-02-11T03:19:48.887Z,103191.06
2023-02-11T03:24:51.904Z,103179.94
2023-02-11T03:30:23.244Z,103179.09
2023-02-11T03:35:36.929Z,103186.06
2023-02-11T03:40:41.633Z,103174.19
2023-02-11T03:45:46.998Z,103185.38
2023-02-11T03:50:52.078Z,103183.88
2023-02-11T03:55:57.678Z,103189.06
2023-02-11T04:01:02.245Z,103182.31
2023-02-11T04:06:05.013Z,103179.66
2023-02-11T04:11:07.578Z,103165.88
2023-02-11T04:16:10.165Z,103171.19
2023-02-11T04:21:12.716Z,103178.19
2023-02-11T04:26:15.365Z,103177.09
2023-02-11T04:31:19.220Z,103186.28
2023-02-11T04:36:21.996Z,103180.34
2023-02-11T04:41:24.751Z,103176.59
2023-02-11T04:46:27.410Z,103167.59
2023-02-11T04:51:30.606Z,103158.25
2023-02-11T04:56:33.212Z,103155.47
2023-02-11T05:01:35.743Z,103148.41
2023-02-11T05:06:40.091Z,103144.34
2023-02-11T05:11:42.794Z,103153.72
2023-02-11T05:16:45.934Z,103139.16
2023-02-11T05:22:01.790Z,103141.84
2023-02-11T05:27:05.736Z,103169.44
2023-02-11T05:32:09.349Z,103160.69
2023-02-11T05:37:12.260Z,103167.56
2023-02-11T05:42:15.042Z,103179.22
2023-02-11T05:47:20.005Z,103167.72
2023-02-11T05:52:25.270Z,103179.78
2023-02-11T05:57:27.794Z,103165.47
2023-02-11T06:02:30.359Z,103173.94
2023-02-11T06:07:33.108Z,103166.38
2023-02-11T06:12:38.849Z,103181.53
2023-02-11T06:17:41.635Z,103157.94
2023-02-11T06:22:44.297Z,103154.09
2023-02-11T06:27:46.973Z,103161.63
2023-02-11T06:32:49.704Z,103149.00
2023-02-11T06:37:54.148Z,103167.59
2023-02-11T06:42:56.721Z,103181.41
2023-02-11T06:47:59.206Z,103150.72
2023-02-11T06:53:02.095Z,103145.91
2023-02-11T06:58:05.334Z,103139.66
2023-02-11T07:03:08.540Z,103120.28
2023-02-11T07:08:11.395Z,103129.38
2023-02-11T07:13:14.002Z,103121.53
2023-02-11T07:18:16.710Z,103101.25
2023-02-11T07:23:22.247Z,103087.00
2023-02-11T07:28:26.535Z,103078.09
2023-02-11T07:33:29.107Z,103105.63
2023-02-11T07:38:32.957Z,103090.28
2023-02-11T07:43:37.090Z,103092.47
2023-02-11T07:48:39.846Z,103077.59
2023-02-11T07:53:43.453Z,103076.38
2023-02-11T07:58:46.970Z,103100.38
2023-02-11T08:03:49.659Z,103087.78
2023-02-11T08:08:52.469Z,103102.34
2023-02-11T08:13:56.241Z,103070.38
2023-02-11T08:19:00.691Z,103062.88
2023-02-11T08:24:04.155Z,103040.16
2023-02-11T08:29:10.189Z,103054.38
2023-02-11T08:34:14.687Z,103065.66
2023-02-11T08:39:22.943Z,103052.81
2023-02-11T08:44:26.413Z,103058.94
2023-02-11T08:49:31.059Z,103035.50
2023-02-11T08:54:33.543Z,103018.66
2023-02-11T08:59:36.050Z,103015.03
2023-02-11T09:04:38.561Z,103016.66
2023-02-11T09:09:43.318Z,102977.50
2023-02-11T09:14:45.785Z,102964.59
2023-02-11T09:19:48.272Z,102976.78
2023-02-11T09:24:50.791Z,102958.19
2023-02-11T09:29:53.360Z,102953.94
2023-02-11T09:34:55.966Z,102964.88
2023-02-11T09:39:59.446Z,102927.19
2023-02-11T09:45:03.920Z,102902.56
2023-02-11T09:50:23.213Z,102906.78
2023-02-11T09:55:28.206Z,102910.81
2023-02-11T10:00:41.892Z,102902.75
2023-02-11T10:05:59.342Z,102912.38
2023-02-11T10:11:32.057Z,102914.13
2023-02-11T10:16:49.974Z,102919.34
2023-02-11T10:22:19.084Z,102916.06
2023-02-11T10:27:28.919Z,102898.59
2023-02-11T10:32:49.696Z,102906.28
2023-02-11T10:37:52.139Z,102910.63
2023-02-11T10:42:57.767Z,102884.81
2023-02-11T10:48:03.796Z,102887.75
2023-02-11T10:53:26.573Z,102885.31
2023-02-11T10:58:45.566Z,102871.56
2023-02-11T11:03:52.828Z,102862.56
2023-02-11T11:08:55.525Z,102868.16
2023-02-11T11:14:00.999Z,102859.31
2023-02-11T11:19:09.524Z,102854.13
2023-02-11T11:24:20.418Z,102850.81
2023-02-11T11:29:36.244Z,102848.47
2023-02-11T11:34:42.266Z,102852.53
2023-02-11T11:39:56.127Z,102840.81
2023-02-11T11:45:20.720Z,102854.94
2023-02-11T11:50:32.623Z,102847.84
2023-02-11T11:55:47.806Z,102860.06
2023-02-11T12:01:04.820Z,102845.34
2023-02-11T12:06:31.561Z,102851.06
2023-02-11T12:11:41.304Z,102844.06
2023-02-11T12:16:55.788Z,102852.50
2023-02-11T12:22:05.907Z,102842.41
2023-02-11T12:27:17.372Z,102849.25
2023-02-11T12:32:53.973Z,102845.41
2023-02-11T12:38:18.921Z,102833.38
2023-02-11T12:43:28.889Z,102820.00
2023-02-11T12:48:52.607Z,102830.59
2023-02-11T12:54:17.949Z,102830.25
2023-02-11T12:59:52.410Z,102821.38
2023-02-11T13:05:00.916Z,102821.50
2023-02-11T13:10:16.881Z,102813.56
2023-02-11T13:15:19.418Z,102827.28
2023-02-11T13:20:32.009Z,102817.53
2023-02-11T13:25:46.050Z,102806.44
2023-02-11T13:30:52.490Z,102809.38
2023-02-11T13:35:58.161Z,102818.22
2023-02-11T13:41:04.675Z,102825.41
2023-02-11T13:46:14.041Z,102808.06
2023-02-11T13:51:33.960Z,102808.41
2023-02-11T13:56:42.973Z,102820.72
2023-02-11T14:02:14.327Z,102820.03
2023-02-11T14:07:50.425Z,102820.06
2023-02-11T14:13:18.985Z,102799.50
2023-02-11T14:18:45.688Z,102809.25
2023-02-11T14:23:48.803Z,102795.66
2023-02-11T14:29:14.328Z,102803.38
2023-02-11T14:34:28.940Z,102802.53
2023-02-11T14:39:37.542Z,102805.66
2023-02-11T14:44:41.608Z,102798.41
2023-02-11T14:49:45.476Z,102803.34
2023-02-11T14:54:51.465Z,102802.47
2023-02-11T14:59:59.542Z,102785.53
2023-02-11T15:05:38.576Z,102792.47
2023-02-11T15:10:45.264Z,102799.00
2023-02-11T15:15:50.604Z,102790.75
2023-02-11T15:20:54.015Z,102791.38
2023-02-11T15:25:56.819Z,102799.69
2023-02-11T15:31:05.226Z,102790.84
2023-02-11T15:36:14.070Z,102781.34
2023-02-11T15:41:37.216Z,102788.44
2023-02-11T15:46:43.024Z,102788.84
2023-02-11T15:51:47.254Z,102802.09
2023-02-11T15:56:52.209Z,102814.69
2023-02-11T16:01:55.848Z,102789.88
2023-02-11T16:06:58.440Z,102788.63
2023-02-11T16:12:22.077Z,102798.97
2023-02-11T16:17:51.492Z,102788.69
2023-02-11T16:22:54.477Z,102782.84
2023-02-11T16:27:57.238Z,102778.34
2023-02-11T16:32:59.914Z,102776.84
2023-02-11T16:38:02.384Z,102768.63
2023-02-11T16:43:05.020Z,102763.31
2023-02-11T16:48:25.907Z,102765.13
2023-02-11T16:53:28.608Z,102759.44
2023-02-11T16:58:31.081Z,102747.34
2023-02-11T17:03:40.715Z,102756.97
2023-02-11T17:08:45.769Z,102740.09
2023-02-11T17:13:48.571Z,102742.69
2023-02-11T17:18:53.747Z,102735.88
2023-02-11T17:23:56.293Z,102724.84
2023-02-11T17:29:02.058Z,102707.06
2023-02-11T17:34:24.068Z,102706.56
2023-02-11T17:39:27.943Z,102698.84
2023-02-11T17:44:30.583Z,102698.47
2023-02-11T17:49:33.256Z,102700.78
2023-02-11T17:54:35.930Z,102690.25
2023-02-11T17:59:39.449Z,102682.06
2023-02-11T18:04:42.292Z,102685.03
2023-02-11T18:09:44.996Z,102672.53
2023-02-11T18:14:48.326Z,102676.19
2023-02-11T18:19:51.002Z,102672.84
2023-02-11T18:24:56.337Z,102672.03
2023-02-11T18:29:59.442Z,102654.41
2023-02-11T18:35:02.041Z,102646.78
2023-02-11T18:40:12.105Z,102645.78
2023-02-11T18:45:15.896Z,102642.31
2023-02-11T18:50:18.906Z,102641.47
2023-02-11T18:55:25.783Z,102638.94
2023-02-11T19:00:28.378Z,102630.47
2023-02-11T19:05:33.688Z,102619.53
2023-02-11T19:10:39.533Z,102616.34
2023-02-11T19:15:44.048Z,102618.09
2023-02-11T19:20:46.528Z,102599.91
2023-02-11T19:25:54.939Z,102591.31
2023-02-11T19:30:57.700Z,102584.84
2023-02-11T19:36:05.476Z,102581.75
2023-02-11T19:41:12.634Z,102579.34
2023-02-11T19:46:16.327Z,102580.66
2023-02-11T19:51:21.229Z,102578.34
2023-02-11T19:56:23.791Z,102575.59
2023-02-11T20:01:27.099Z,102570.97
2023-02-11T20:06:31.503Z,102554.91
2023-02-11T20:11:35.133Z,102545.88
2023-02-11T20:16:48.022Z,102533.78
2023-02-11T20:21:55.985Z,102536.28
2023-02-11T20:27:01.860Z,102538.50
2023-02-11T20:32:05.646Z,102541.09
2023-02-11T20:37:08.648Z,102529.78
2023-02-11T20:42:12.309Z,102548.75
2023-02-11T20:47:14.632Z,102540.31
2023-02-11T20:52:17.169Z,102532.06
2023-02-11T20:57:19.754Z,102528.44
2023-02-11T21:02:24.680Z,102516.25
2023-02-11T21:07:29.649Z,102516.25
2023-02-11T21:12:32.117Z,102515.06
2023-02-11T21:17:34.756Z,102512.50
2023-02-11T21:22:37.340Z,102509.56
2023-02-11T21:27:40.059Z,102507.47
2023-02-11T21:32:42.724Z,102486.03
2023-02-11T21:48:26.905Z,102474.94
2023-02-11T21:53:29.392Z,102480.06
2023-02-11T21:58:32.147Z,102468.09
2023-02-11T22:03:34.565Z,102467.22
2023-02-11T22:08:38.125Z,102454.47
2023-02-11T22:13:42.232Z,102447.38
2023-02-11T22:18:46.647Z,102436.16
2023-02-11T22:23:50.647Z,102436.44
2023-02-11T22:28:53.967Z,102433.84
2023-02-11T22:33:57.849Z,102425.38
2023-02-11T22:39:05.669Z,102421.28
2023-02-11T22:44:09.917Z,102413.41
2023-02-11T22:49:14.966Z,102396.81
2023-02-11T22:54:19.379Z,102404.88
2023-02-11T22:59:21.974Z,102405.31
2023-02-11T23:04:27.504Z,102406.22
2023-02-11T23:09:30.671Z,102401.88
2023-02-11T23:14:33.242Z,102387.47
2023-02-11T23:19:37.953Z,102395.59
2023-02-11T23:24:40.503Z,102390.66
2023-02-11T23:29:43.082Z,102390.06
2023-02-11T23:34:45.783Z,102390.91
2023-02-11T23:39:48.259Z,102382.06
2023-02-11T23:44:50.710Z,102365.00
2023-02-11T23:49:53.248Z,102366.47
2023-02-11T23:54:55.645Z,102361.19
